Time;durP1;ratioP1;P1;durP2;ratioP2;P2;SDS_P1;SDS_P2;PMS_P1;PMS_P2;Temp;Humidity;BMP_temperature;BMP_pressure;BME280_temperature;BME280_humidity;BME280_pressure;Samples;Min_cycle;Max_cycle;Signal;HPM_P1;HPM_P2
2022/04/28 00:01:44;;;;;;;;;;;21.70;36.80;;;;;;481848;247;1122;-77
2022/04/28 00:03:46;;;;;;;;;;;21.80;36.80;;;;;;481987;246;1147;-77
2022/04/28 00:05:47;;;;;;;;;;;21.70;36.80;;;;;;481909;246;1153;-77
2022/04/28 00:07:48;;;;;;;;;;;21.70;36.70;;;;;;481793;247;1057;-77
2022/04/28 00:09:50;;;;;;;;;;;21.70;36.70;;;;;;481880;247;1112;-77
2022/04/28 00:11:52;;;;;;;;;;;21.70;36.70;;;;;;481938;246;1219;-77
2022/04/28 00:13:52;;;;;;;;;;;21.70;36.70;;;;;;481941;246;1339;-77
2022/04/28 00:15:54;;;;;;;;;;;21.70;36.70;;;;;;481952;247;1366;-77
2022/04/28 00:17:55;;;;;;;;;;;21.70;36.60;;;;;;482026;247;1207;-77
2022/04/28 00:19:56;;;;;;;;;;;21.70;36.50;;;;;;482159;246;2189;-77
2022/04/28 00:21:58;;;;;;;;;;;21.70;36.70;;;;;;481975;247;1235;-77
2022/04/28 00:23:59;;;;;;;;;;;21.70;36.60;;;;;;481913;247;992;-77
2022/04/28 00:26:00;;;;;;;;;;;21.70;36.60;;;;;;482109;246;1057;-77
2022/04/28 00:28:02;;;;;;;;;;;21.70;36.60;;;;;;481919;247;1113;-77
2022/04/28 00:30:03;;;;;;;;;;;21.70;36.50;;;;;;481876;247;1241;-77
2022/04/28 00:32:05;;;;;;;;;;;21.70;36.50;;;;;;481898;247;1200;-77
2022/04/28 00:34:06;;;;;;;;;;;21.70;36.60;;;;;;481885;246;1149;-77
2022/04/28 00:36:07;;;;;;;;;;;21.70;36.60;;;;;;481762;247;1240;-77
2022/04/28 00:38:11;;;;;;;;;;;21.60;36.70;;;;;;481870;246;942;-77
2022/04/28 00:40:10;;;;;;;;;;;21.60;36.80;;;;;;481823;246;2204;-77
2022/04/28 00:42:11;;;;;;;;;;;21.70;36.70;;;;;;481894;247;1210;-77
2022/04/28 00:44:13;;;;;;;;;;;21.60;36.60;;;;;;481889;246;953;-77
2022/04/28 00:46:14;;;;;;;;;;;21.60;36.80;;;;;;481862;246;1298;-77
2022/04/28 00:50:41;;;;;;;;;;;21.60;36.80;;;;;;481820;247;1321;-77
2022/04/28 00:52:42;;;;;;;;;;;21.60;36.80;;;;;;482006;246;1307;-77
2022/04/28 00:54:43;;;;;;;;;;;21.50;36.90;;;;;;481872;247;1153;-77
2022/04/28 00:56:44;;;;;;;;;;;21.40;37.00;;;;;;482009;246;1354;-77
2022/04/28 00:58:46;;;;;;;;;;;21.40;37.00;;;;;;481950;246;1002;-77
2022/04/28 01:00:47;;;;;;;;;;;21.40;37.00;;;;;;481823;247;2193;-77
2022/04/28 01:02:48;;;;;;;;;;;21.40;37.10;;;;;;481880;246;996;-77
2022/04/28 01:04:50;;;;;;;;;;;21.40;37.00;;;;;;481920;247;1158;-77
2022/04/28 01:06:52;;;;;;;;;;;21.50;37.00;;;;;;481966;246;1220;-77
2022/04/28 01:08:53;;;;;;;;;;;21.50;37.00;;;;;;481920;246;1000;-77
2022/04/28 01:10:54;;;;;;;;;;;21.50;37.10;;;;;;481832;247;1174;-77
2022/04/28 01:12:55;;;;;;;;;;;21.60;36.90;;;;;;481853;246;1167;-77
2022/04/28 01:14:57;;;;;;;;;;;21.60;36.80;;;;;;481885;247;983;-77
2022/04/28 01:16:58;;;;;;;;;;;21.50;36.90;;;;;;481999;247;1129;-77
2022/04/28 01:19:00;;;;;;;;;;;21.50;36.90;;;;;;481938;247;1100;-77
2022/04/28 01:21:01;;;;;;;;;;;21.50;36.90;;;;;;481862;247;2150;-77
2022/04/28 01:23:02;;;;;;;;;;;21.50;36.80;;;;;;481879;246;1004;-77
2022/04/28 01:25:04;;;;;;;;;;;21.50;36.80;;;;;;481885;247;1018;-77
2022/04/28 01:27:05;;;;;;;;;;;21.60;36.80;;;;;;481871;246;1123;-77
2022/04/28 01:29:07;;;;;;;;;;;21.60;36.80;;;;;;481911;247;1000;-77
2022/04/28 01:31:08;;;;;;;;;;;21.60;36.80;;;;;;481824;246;1174;-77
2022/04/28 01:33:09;;;;;;;;;;;21.60;36.80;;;;;;481877;247;1067;-77
2022/04/28 01:35:11;;;;;;;;;;;21.70;36.60;;;;;;481885;247;1312;-77
2022/04/28 01:37:12;;;;;;;;;;;21.80;36.50;;;;;;481949;247;1258;-77
2022/04/28 01:39:13;;;;;;;;;;;21.90;36.40;;;;;;481971;246;1074;-77
2022/04/28 01:41:15;;;;;;;;;;;21.90;36.20;;;;;;481893;247;2196;-77
2022/04/28 01:43:16;;;;;;;;;;;22.10;36.00;;;;;;481867;246;1064;-78
2022/04/28 01:45:17;;;;;;;;;;;22.20;35.80;;;;;;481806;246;1155;-77
2022/04/28 01:47:19;;;;;;;;;;;22.30;35.70;;;;;;481928;246;1080;-77
2022/04/28 01:49:20;;;;;;;;;;;22.30;35.70;;;;;;481930;247;1114;-77
2022/04/28 01:56:00;;;;;;;;;;;22.30;35.60;;;;;;490768;243;1219;-77
2022/04/28 01:58:01;;;;;;;;;;;22.30;35.60;;;;;;473766;252;1156;-77
2022/04/28 02:00:02;;;;;;;;;;;22.20;35.60;;;;;;481863;246;2129;-77
2022/04/28 02:02:04;;;;;;;;;;;22.20;35.70;;;;;;481816;247;1137;-77
2022/04/28 02:04:05;;;;;;;;;;;22.20;35.70;;;;;;482022;247;1178;-77
2022/04/28 02:06:06;;;;;;;;;;;22.20;35.70;;;;;;481919;246;1275;-77
2022/04/28 02:08:08;;;;;;;;;;;22.10;35.80;;;;;;481894;246;1061;-77
2022/04/28 02:10:09;;;;;;;;;;;22.10;35.90;;;;;;481925;247;1196;-77
2022/04/28 02:12:12;;;;;;;;;;;22.00;36.00;;;;;;481956;246;1108;-77
2022/04/28 02:14:12;;;;;;;;;;;22.00;36.10;;;;;;481975;247;1311;-77
2022/04/28 02:16:13;;;;;;;;;;;21.90;36.10;;;;;;481851;246;1223;-77
2022/04/28 02:18:15;;;;;;;;;;;21.90;36.20;;;;;;481859;247;1127;-77
2022/04/28 02:20:16;;;;;;;;;;;21.90;36.10;;;;;;481896;245;2180;-77
2022/04/28 02:22:17;;;;;;;;;;;21.70;36.20;;;;;;481800;247;1117;-77
2022/04/28 02:24:19;;;;;;;;;;;21.70;36.40;;;;;;481924;246;997;-77
2022/04/28 02:26:20;;;;;;;;;;;21.60;36.40;;;;;;481827;247;1228;-77
2022/04/28 02:28:21;;;;;;;;;;;21.70;36.40;;;;;;482077;246;1227;-77
2022/04/28 02:30:23;;;;;;;;;;;21.60;36.60;;;;;;481895;246;1196;-77
2022/04/28 02:32:24;;;;;;;;;;;21.40;36.80;;;;;;481843;247;1283;-77
2022/04/28 02:34:25;;;;;;;;;;;21.30;37.00;;;;;;481867;246;1049;-77
2022/04/28 02:36:27;;;;;;;;;;;21.20;37.00;;;;;;481845;247;1313;-77
2022/04/28 02:38:28;;;;;;;;;;;21.20;37.10;;;;;;481915;246;1116;-77
2022/04/28 02:40:29;;;;;;;;;;;21.20;37.10;;;;;;481881;247;2204;-77
2022/04/28 02:42:31;;;;;;;;;;;21.10;37.20;;;;;;482012;247;1187;-77
2022/04/28 02:44:32;;;;;;;;;;;21.10;37.30;;;;;;482087;246;1086;-77
2022/04/28 02:46:33;;;;;;;;;;;21.00;37.50;;;;;;481801;247;1143;-77
2022/04/28 02:48:34;;;;;;;;;;;21.00;37.50;;;;;;481884;247;1101;-77
2022/04/28 02:50:36;;;;;;;;;;;21.00;37.60;;;;;;481790;247;1258;-77
2022/04/28 02:52:37;;;;;;;;;;;20.90;37.50;;;;;;481875;246;1159;-77
2022/04/28 02:54:39;;;;;;;;;;;21.00;37.40;;;;;;481869;247;1291;-77
2022/04/28 02:56:40;;;;;;;;;;;20.90;37.30;;;;;;481944;247;1277;-77
2022/04/28 02:58:41;;;;;;;;;;;20.90;37.30;;;;;;481951;246;1109;-77
2022/04/28 03:00:43;;;;;;;;;;;20.90;37.50;;;;;;481975;247;2130;-77
2022/04/28 03:02:44;;;;;;;;;;;20.90;37.40;;;;;;481817;246;1162;-77
2022/04/28 03:04:45;;;;;;;;;;;20.90;37.30;;;;;;481920;247;955;-77
2022/04/28 03:11:25;;;;;;;;;;;21.00;37.00;;;;;;473622;251;1118;-77
2022/04/28 03:13:26;;;;;;;;;;;21.10;37.00;;;;;;481856;247;1044;-77
2022/04/28 03:15:28;;;;;;;;;;;21.00;37.00;;;;;;481868;246;1247;-77
2022/04/28 03:17:29;;;;;;;;;;;21.00;37.00;;;;;;481921;246;1108;-77
2022/04/28 03:19:30;;;;;;;;;;;21.10;36.70;;;;;;481932;247;942;-77
2022/04/28 03:21:32;;;;;;;;;;;21.20;36.50;;;;;;481888;246;2193;-77
2022/04/28 03:23:34;;;;;;;;;;;21.30;36.20;;;;;;481846;247;956;-77
2022/04/28 03:25:35;;;;;;;;;;;21.40;36.00;;;;;;481878;246;1159;-77
2022/04/28 03:27:36;;;;;;;;;;;21.40;35.90;;;;;;481891;247;1118;-77
2022/04/28 03:29:38;;;;;;;;;;;21.60;35.70;;;;;;481863;246;1019;-77
2022/04/28 03:31:39;;;;;;;;;;;21.70;35.40;;;;;;481827;247;1412;-77
2022/04/28 03:33:40;;;;;;;;;;;21.70;35.30;;;;;;481899;247;1215;-77
2022/04/28 03:35:41;;;;;;;;;;;21.70;35.30;;;;;;481918;246;1237;-77
2022/04/28 03:37:44;;;;;;;;;;;21.70;35.30;;;;;;481879;247;1169;-77
2022/04/28 03:39:44;;;;;;;;;;;21.60;35.20;;;;;;481838;247;1480;-77
2022/04/28 03:41:45;;;;;;;;;;;21.60;35.30;;;;;;481815;247;2189;-77
2022/04/28 03:43:47;;;;;;;;;;;21.60;35.20;;;;;;481912;247;1326;-77
2022/04/28 03:45:51;;;;;;;;;;;21.60;35.30;;;;;;481777;247;1219;-77
2022/04/28 03:47:49;;;;;;;;;;;21.40;35.40;;;;;;481639;247;1324;-77
2022/04/28 03:49:51;;;;;;;;;;;21.30;35.60;;;;;;481936;247;1077;-77
2022/04/28 03:51:52;;;;;;;;;;;21.20;35.70;;;;;;481873;247;1327;-77
2022/04/28 03:53:54;;;;;;;;;;;21.20;35.80;;;;;;481913;247;961;-77
2022/04/28 03:55:55;;;;;;;;;;;21.10;35.90;;;;;;481993;247;1471;-77
2022/04/28 03:57:56;;;;;;;;;;;21.00;36.00;;;;;;481838;247;1103;-77
2022/04/28 03:59:57;;;;;;;;;;;20.90;36.10;;;;;;481784;247;1032;-77
2022/04/28 04:01:59;;;;;;;;;;;20.80;36.20;;;;;;481942;246;2129;-77
2022/04/28 04:04:00;;;;;;;;;;;20.80;36.20;;;;;;481890;246;1187;-77
2022/04/28 04:06:02;;;;;;;;;;;20.80;36.10;;;;;;481924;247;1203;-77
2022/04/28 04:08:02;;;;;;;;;;;20.80;36.20;;;;;;481947;247;1318;-77
2022/04/28 04:10:04;;;;;;;;;;;20.80;36.10;;;;;;481848;247;1068;-77
2022/04/28 04:12:05;;;;;;;;;;;20.80;36.00;;;;;;481936;246;1210;-77
2022/04/28 04:14:07;;;;;;;;;;;20.80;36.00;;;;;;481868;247;1477;-77
2022/04/28 04:16:08;;;;;;;;;;;20.80;36.10;;;;;;481846;247;1148;-77
2022/04/28 04:18:10;;;;;;;;;;;20.70;36.10;;;;;;481998;246;1195;-77
2022/04/28 04:20:11;;;;;;;;;;;20.70;36.20;;;;;;481883;246;1155;-77
2022/04/28 04:22:12;;;;;;;;;;;20.80;36.00;;;;;;481865;247;2201;-77
2022/04/28 04:24:13;;;;;;;;;;;20.80;36.10;;;;;;481946;246;1145;-77
2022/04/28 04:26:14;;;;;;;;;;;20.90;35.80;;;;;;481924;244;1490;-77
2022/04/28 04:28:16;;;;;;;;;;;21.00;35.60;;;;;;481930;246;989;-77
2022/04/28 04:32:36;;;;;;;;;;;21.30;35.30;;;;;;490655;243;1316;-77
2022/04/28 04:34:38;;;;;;;;;;;21.50;34.80;;;;;;473567;252;1040;-77
2022/04/28 04:36:39;;;;;;;;;;;21.30;34.70;;;;;;481816;246;1209;-78
2022/04/28 04:38:41;;;;;;;;;;;21.40;34.80;;;;;;481868;247;1183;-77
2022/04/28 04:40:42;;;;;;;;;;;21.60;34.60;;;;;;481811;246;2138;-77
2022/04/28 04:42:43;;;;;;;;;;;21.60;34.40;;;;;;481922;246;1124;-77
2022/04/28 04:44:44;;;;;;;;;;;21.70;34.20;;;;;;481746;247;1035;-77
2022/04/28 04:46:46;;;;;;;;;;;21.60;34.40;;;;;;481806;246;1235;-77
2022/04/28 04:48:47;;;;;;;;;;;21.70;34.20;;;;;;481834;247;1182;-78
2022/04/28 04:50:48;;;;;;;;;;;21.80;34.10;;;;;;481551;246;1221;-77
2022/04/28 04:52:50;;;;;;;;;;;21.70;34.10;;;;;;481998;245;1182;-77
2022/04/28 04:54:51;;;;;;;;;;;21.70;34.20;;;;;;481812;246;1004;-77
2022/04/28 04:56:52;;;;;;;;;;;21.70;34.10;;;;;;481822;246;1208;-77
2022/04/28 04:58:54;;;;;;;;;;;21.70;34.00;;;;;;481844;246;1062;-77
2022/04/28 05:00:55;;;;;;;;;;;21.70;34.00;;;;;;481762;246;2192;-77
2022/04/28 05:02:56;;;;;;;;;;;21.80;34.10;;;;;;481602;247;1230;-77
2022/04/28 05:04:58;;;;;;;;;;;21.70;34.20;;;;;;481601;247;1097;-77
2022/04/28 05:06:59;;;;;;;;;;;21.70;34.10;;;;;;481624;247;1108;-77
2022/04/28 05:09:00;;;;;;;;;;;21.70;34.10;;;;;;481719;246;1152;-77
2022/04/28 05:11:02;;;;;;;;;;;21.70;34.10;;;;;;481757;246;1095;-77
2022/04/28 05:13:03;;;;;;;;;;;21.70;34.10;;;;;;481996;246;1159;-77
2022/04/28 05:15:04;;;;;;;;;;;21.70;34.10;;;;;;481466;246;1318;-77
2022/04/28 05:17:05;;;;;;;;;;;21.70;34.20;;;;;;481660;247;1298;-77
2022/04/28 05:19:07;;;;;;;;;;;21.60;34.40;;;;;;481709;246;1039;-77
2022/04/28 05:21:08;;;;;;;;;;;21.70;34.30;;;;;;481372;246;2196;-77
2022/04/28 05:23:10;;;;;;;;;;;21.80;34.30;;;;;;481548;247;1133;-77
2022/04/28 05:25:11;;;;;;;;;;;21.80;34.30;;;;;;481749;247;1063;-77
2022/04/28 05:27:14;;;;;;;;;;;21.80;34.30;;;;;;481713;247;1186;-77
2022/04/28 05:29:14;;;;;;;;;;;21.80;34.40;;;;;;481534;247;1332;-77
2022/04/28 05:31:15;;;;;;;;;;;21.90;34.40;;;;;;481561;247;1185;-77
2022/04/28 05:33:16;;;;;;;;;;;21.80;34.40;;;;;;481574;246;1039;-77
2022/04/28 05:35:17;;;;;;;;;;;21.80;34.50;;;;;;481620;247;1048;-77
2022/04/28 05:37:19;;;;;;;;;;;21.80;34.60;;;;;;481654;246;1480;-77
2022/04/28 05:39:20;;;;;;;;;;;21.80;34.70;;;;;;481667;247;1188;-77
2022/04/28 05:41:23;;;;;;;;;;;21.80;34.70;;;;;;481697;246;2197;-77
2022/04/28 05:45:42;;;;;;;;;;;21.80;34.80;;;;;;481570;247;1178;-78
2022/04/28 05:47:44;;;;;;;;;;;21.80;34.90;;;;;;481836;246;1109;-78
2022/04/28 05:49:45;;;;;;;;;;;21.80;34.80;;;;;;481578;246;954;-78
2022/04/28 05:51:46;;;;;;;;;;;22.00;34.70;;;;;;481647;247;1220;-77
2022/04/28 05:53:48;;;;;;;;;;;22.10;34.70;;;;;;481678;246;1138;-78
2022/04/28 05:55:49;;;;;;;;;;;22.10;34.60;;;;;;481661;247;1234;-78
2022/04/28 05:57:50;;;;;;;;;;;22.10;34.70;;;;;;481577;246;1131;-78
2022/04/28 05:59:52;;;;;;;;;;;22.10;34.90;;;;;;481597;247;1265;-77
2022/04/28 06:01:53;;;;;;;;;;;22.00;34.90;;;;;;481599;246;2204;-77
2022/04/28 06:03:54;;;;;;;;;;;22.10;35.00;;;;;;481603;246;1153;-77
2022/04/28 06:05:56;;;;;;;;;;;22.00;35.10;;;;;;481544;246;1200;-77
2022/04/28 06:07:57;;;;;;;;;;;22.10;35.10;;;;;;481449;246;1270;-78
2022/04/28 06:09:59;;;;;;;;;;;22.10;35.20;;;;;;481481;246;1046;-79
2022/04/28 06:12:00;;;;;;;;;;;21.90;35.30;;;;;;481535;247;1505;-77
2022/04/28 06:14:01;;;;;;;;;;;22.00;35.30;;;;;;481569;247;1027;-77
2022/04/28 06:16:03;;;;;;;;;;;22.10;35.40;;;;;;481461;246;1149;-77
2022/04/28 06:18:04;;;;;;;;;;;22.10;35.40;;;;;;481671;246;954;-78
2022/04/28 06:20:05;;;;;;;;;;;22.00;35.40;;;;;;481549;246;1089;-77
2022/04/28 06:22:07;;;;;;;;;;;22.00;35.50;;;;;;481453;247;2208;-78
2022/04/28 06:24:08;;;;;;;;;;;22.00;35.60;;;;;;481496;246;1141;-77
2022/04/28 06:26:09;;;;;;;;;;;22.10;35.60;;;;;;481515;247;1195;-77
2022/04/28 06:28:11;;;;;;;;;;;22.20;35.60;;;;;;481802;246;1123;-77
2022/04/28 06:30:12;;;;;;;;;;;22.10;35.70;;;;;;481459;246;1149;-77
2022/04/28 06:32:13;;;;;;;;;;;22.10;35.80;;;;;;481327;247;1194;-77
2022/04/28 06:34:14;;;;;;;;;;;22.20;35.80;;;;;;481544;247;1163;-78
2022/04/28 06:36:16;;;;;;;;;;;22.10;35.90;;;;;;481506;247;1180;-78
2022/04/28 06:38:17;;;;;;;;;;;22.10;36.10;;;;;;481430;246;1072;-78
2022/04/28 06:40:18;;;;;;;;;;;22.10;36.20;;;;;;481376;246;1211;-77
2022/04/28 06:42:20;;;;;;;;;;;22.10;36.20;;;;;;481048;247;2140;-78
2022/04/28 06:44:21;;;;;;;;;;;22.10;36.40;;;;;;481102;247;1126;-78
2022/04/28 06:46:22;;;;;;;;;;;22.10;36.60;;;;;;481141;247;1354;-77
2022/04/28 06:48:24;;;;;;;;;;;22.00;36.70;;;;;;481430;247;1078;-78
2022/04/28 06:50:26;;;;;;;;;;;22.00;36.80;;;;;;481444;246;1127;-77
2022/04/28 06:52:26;;;;;;;;;;;22.00;37.00;;;;;;481359;246;1854;-77
2022/04/28 06:54:27;;;;;;;;;;;22.10;37.00;;;;;;481569;246;1184;-77
2022/04/28 06:56:29;;;;;;;;;;;22.00;37.00;;;;;;481341;247;1112;-77
2022/04/28 06:58:30;;;;;;;;;;;22.10;37.00;;;;;;481436;247;1076;-77
2022/04/28 07:00:32;;;;;;;;;;;22.10;36.80;;;;;;481471;246;1124;-78
2022/04/28 07:02:33;;;;;;;;;;;22.20;36.90;;;;;;481540;247;2131;-77
2022/04/28 07:04:34;;;;;;;;;;;22.20;36.90;;;;;;481396;247;1019;-77
2022/04/28 07:06:35;;;;;;;;;;;22.10;37.00;;;;;;481359;246;1117;-78
2022/04/28 07:08:37;;;;;;;;;;;22.20;37.00;;;;;;481408;246;1193;-78
2022/04/28 07:10:40;;;;;;;;;;;22.10;37.00;;;;;;481278;247;1101;-77
2022/04/28 07:12:39;;;;;;;;;;;22.20;37.10;;;;;;481107;247;1331;-77
2022/04/28 07:14:42;;;;;;;;;;;22.20;37.10;;;;;;481033;247;1278;-77
2022/04/28 07:16:42;;;;;;;;;;;22.10;37.10;;;;;;473054;251;1380;-78
2022/04/28 07:18:43;;;;;;;;;;;22.20;37.10;;;;;;481352;247;1156;-78
2022/04/28 07:20:45;;;;;;;;;;;22.20;37.10;;;;;;490175;242;1066;-77
2022/04/28 07:22:46;;;;;;;;;;;22.30;37.10;;;;;;473325;252;2185;-77
2022/04/28 07:24:48;;;;;;;;;;;22.40;37.00;;;;;;481621;247;1100;-78
2022/04/28 07:26:49;;;;;;;;;;;22.20;37.10;;;;;;481569;247;1190;-77
2022/04/28 07:28:50;;;;;;;;;;;22.30;37.20;;;;;;481493;246;1093;-78
2022/04/28 07:30:52;;;;;;;;;;;22.10;37.50;;;;;;481092;246;1099;-78
2022/04/28 07:32:53;;;;;;;;;;;22.20;37.40;;;;;;481212;247;1122;-78
2022/04/28 07:34:54;;;;;;;;;;;22.20;37.60;;;;;;481240;247;1169;-78
2022/04/28 07:36:56;;;;;;;;;;;22.30;37.50;;;;;;481193;247;1155;-77
2022/04/28 07:38:58;;;;;;;;;;;22.10;37.70;;;;;;481079;246;1183;-78
2022/04/28 07:40:58;;;;;;;;;;;22.30;37.60;;;;;;481015;246;1400;-78
2022/04/28 07:43:00;;;;;;;;;;;22.30;37.50;;;;;;481014;246;2185;-78
2022/04/28 07:45:01;;;;;;;;;;;22.20;37.50;;;;;;481067;247;1135;-78
2022/04/28 07:47:02;;;;;;;;;;;22.20;37.60;;;;;;481442;247;1148;-78
2022/04/28 07:49:04;;;;;;;;;;;22.20;37.70;;;;;;481192;246;1075;-78
2022/04/28 07:51:05;;;;;;;;;;;22.40;37.50;;;;;;481105;246;1203;-78
2022/04/28 07:53:06;;;;;;;;;;;22.40;37.40;;;;;;481319;247;1349;-78
2022/04/28 07:55:08;;;;;;;;;;;22.50;37.40;;;;;;480997;246;1203;-78
2022/04/28 07:57:09;;;;;;;;;;;22.40;37.40;;;;;;481188;247;1346;-78
2022/04/28 07:59:11;;;;;;;;;;;22.50;37.40;;;;;;481031;246;1237;-78
2022/04/28 08:01:12;;;;;;;;;;;22.40;37.50;;;;;;480924;247;1911;-79
2022/04/28 08:03:14;;;;;;;;;;;22.40;37.60;;;;;;481581;247;2209;-79
2022/04/28 08:05:15;;;;;;;;;;;22.30;37.60;;;;;;481637;247;1391;-79
2022/04/28 08:07:16;;;;;;;;;;;22.40;37.40;;;;;;481597;247;967;-78
2022/04/28 08:09:17;;;;;;;;;;;22.50;37.40;;;;;;481487;247;1168;-78
2022/04/28 08:11:18;;;;;;;;;;;22.40;37.50;;;;;;481167;246;1157;-78
2022/04/28 08:13:19;;;;;;;;;;;22.50;37.30;;;;;;481181;246;1110;-78
2022/04/28 08:15:21;;;;;;;;;;;22.40;37.40;;;;;;481075;247;1116;-79
2022/04/28 08:17:22;;;;;;;;;;;22.40;37.20;;;;;;481255;246;1156;-79
2022/04/28 08:19:24;;;;;;;;;;;22.50;37.30;;;;;;481100;247;1123;-78
2022/04/28 08:21:25;;;;;;;;;;;22.40;37.20;;;;;;481082;247;1233;-79
2022/04/28 08:23:26;;;;;;;;;;;22.40;37.30;;;;;;481030;247;2197;-78
2022/04/28 08:25:27;;;;;;;;;;;22.40;37.20;;;;;;480910;247;1406;-78
2022/04/28 08:27:29;;;;;;;;;;;22.50;37.20;;;;;;481037;247;1453;-78
2022/04/28 08:29:30;;;;;;;;;;;22.40;37.20;;;;;;481093;247;1109;-79
2022/04/28 08:31:31;;;;;;;;;;;22.40;37.40;;;;;;480921;247;1280;-78
2022/04/28 08:33:33;;;;;;;;;;;22.40;37.30;;;;;;480986;247;1166;-79
2022/04/28 08:35:34;;;;;;;;;;;22.40;37.40;;;;;;481090;247;1140;-78
2022/04/28 08:37:36;;;;;;;;;;;22.40;37.20;;;;;;481116;247;1286;-78
2022/04/28 08:39:37;;;;;;;;;;;22.50;37.20;;;;;;481179;246;1061;-79
2022/04/28 08:41:41;;;;;;;;;;;22.50;37.20;;;;;;481255;247;1266;-79
2022/04/28 08:43:40;;;;;;;;;;;22.50;37.00;;;;;;489711;242;2196;-79
2022/04/28 08:46:50;;;;;;;;;;;22.50;36.80;;;;;;472918;251;1231;-79
2022/04/28 08:47:42;;;;;;;;;;;22.50;36.90;;;;;;480540;247;1095;-78
2022/04/28 08:49:44;;;;;;;;;;;22.40;37.00;;;;;;481066;247;1170;-78
2022/04/28 08:51:45;;;;;;;;;;;22.30;37.20;;;;;;481303;247;1105;-79
2022/04/28 08:53:47;;;;;;;;;;;22.30;37.00;;;;;;481159;246;1123;-78
2022/04/28 08:55:48;;;;;;;;;;;22.20;37.10;;;;;;481307;246;1566;-78
2022/04/28 08:57:49;;;;;;;;;;;22.30;36.90;;;;;;481032;247;1134;-79
2022/04/28 08:59:51;;;;;;;;;;;22.30;36.80;;;;;;480915;247;1304;-78
2022/04/28 09:01:52;;;;;;;;;;;22.40;36.70;;;;;;480834;247;1385;-78
2022/04/28 09:03:53;;;;;;;;;;;22.20;36.70;;;;;;481007;246;2122;-79
2022/04/28 09:05:55;;;;;;;;;;;22.20;36.60;;;;;;481018;247;1380;-79
2022/04/28 09:07:56;;;;;;;;;;;22.30;36.60;;;;;;481091;246;1343;-79
2022/04/28 09:09:57;;;;;;;;;;;22.20;36.70;;;;;;481163;247;1008;-79
2022/04/28 09:11:58;;;;;;;;;;;22.30;36.70;;;;;;481375;247;1218;-79
2022/04/28 09:14:12;;;;;;;;;;;22.30;36.60;;;;;;481227;247;1060;-79
2022/04/28 09:16:13;;;;;;;;;;;22.30;36.60;;;;;;481262;247;1543;-78
2022/04/28 09:18:15;;;;;;;;;;;22.20;36.60;;;;;;490238;242;1074;-78
2022/04/28 09:20:17;;;;;;;;;;;22.20;36.60;;;;;;473039;251;1085;-79
2022/04/28 09:22:18;;;;;;;;;;;22.20;36.60;;;;;;480974;247;2220;-78
2022/04/28 09:24:19;;;;;;;;;;;22.20;36.50;;;;;;480966;247;1078;-79
2022/04/28 09:26:21;;;;;;;;;;;22.20;36.60;;;;;;480954;245;1224;-79
2022/04/28 09:28:23;;;;;;;;;;;22.10;36.60;;;;;;481467;246;1078;-79
2022/04/28 09:30:24;;;;;;;;;;;22.10;36.60;;;;;;481185;247;1150;-79
2022/04/28 09:32:25;;;;;;;;;;;22.00;36.60;;;;;;481242;246;1231;-79
2022/04/28 09:34:27;;;;;;;;;;;22.00;36.50;;;;;;481045;247;1078;-78
2022/04/28 09:36:28;;;;;;;;;;;22.10;36.40;;;;;;481152;246;1104;-79
2022/04/28 09:38:29;;;;;;;;;;;22.10;36.30;;;;;;481070;247;1093;-78
2022/04/28 09:42:50;;;;;;;;;;;22.10;36.10;;;;;;481395;247;2141;-78
2022/04/28 09:44:51;;;;;;;;;;;22.10;35.90;;;;;;481590;246;1281;-79
2022/04/28 09:46:52;;;;;;;;;;;22.20;35.70;;;;;;481367;247;1191;-78
2022/04/28 09:48:54;;;;;;;;;;;22.20;35.60;;;;;;481810;246;998;-79
2022/04/28 09:50:55;;;;;;;;;;;22.20;35.70;;;;;;481104;247;1229;-78
2022/04/28 09:52:56;;;;;;;;;;;22.20;35.50;;;;;;481004;246;1149;-79
2022/04/28 09:54:58;;;;;;;;;;;22.30;35.40;;;;;;481015;247;1073;-78
2022/04/28 09:56:59;;;;;;;;;;;22.30;35.30;;;;;;481054;247;1137;-79
2022/04/28 09:59:00;;;;;;;;;;;22.20;35.20;;;;;;481176;246;1443;-78
2022/04/28 10:01:03;;;;;;;;;;;22.30;35.20;;;;;;481047;247;1257;-78
2022/04/28 10:03:03;;;;;;;;;;;22.30;35.20;;;;;;481337;247;2134;-78
2022/04/28 10:05:05;;;;;;;;;;;22.30;35.00;;;;;;481131;247;1075;-78
2022/04/28 10:07:06;;;;;;;;;;;22.20;35.10;;;;;;480932;247;1088;-78
2022/04/28 10:09:11;;;;;;;;;;;22.20;35.00;;;;;;480992;247;1427;-78
2022/04/28 10:11:10;;;;;;;;;;;22.10;35.00;;;;;;480940;247;1730;-79
2022/04/28 10:13:12;;;;;;;;;;;22.20;35.00;;;;;;481154;247;1123;-79
2022/04/28 10:15:14;;;;;;;;;;;22.30;35.00;;;;;;481188;246;1052;-78
2022/04/28 10:17:15;;;;;;;;;;;22.30;34.80;;;;;;481296;247;1322;-79
2022/04/28 10:19:16;;;;;;;;;;;22.30;34.70;;;;;;481269;247;1073;-79
2022/04/28 10:21:17;;;;;;;;;;;22.40;34.60;;;;;;481360;247;1156;-79
2022/04/28 10:32:22;;;;;;;;;;;22.40;34.50;;;;;;481371;247;2185;-79
2022/04/28 10:32:24;;;;;;;;;;;22.30;34.30;;;;;;490302;243;1160;-79
2022/04/28 10:34:25;;;;;;;;;;;22.10;34.30;;;;;;481374;247;1404;-79
2022/04/28 10:36:26;;;;;;;;;;;22.20;34.20;;;;;;481381;247;1345;-79
2022/04/28 10:38:30;;;;;;;;;;;22.30;33.90;;;;;;481199;246;1082;-79
2022/04/28 10:40:30;;;;;;;;;;;22.30;33.70;;;;;;481464;246;1243;-79
2022/04/28 10:42:32;;;;;;;;;;;22.40;33.50;;;;;;481636;246;2181;-79
2022/04/28 10:44:35;;;;;;;;;;;22.40;33.50;;;;;;481364;247;1063;-79
2022/04/28 10:46:34;;;;;;;;;;;22.40;33.40;;;;;;481341;247;1503;-79
2022/04/28 10:48:38;;;;;;;;;;;22.50;33.30;;;;;;481279;247;1066;-79
2022/04/28 10:50:37;;;;;;;;;;;22.50;33.20;;;;;;481221;247;1387;-79
2022/04/28 10:52:38;;;;;;;;;;;22.50;33.00;;;;;;481323;247;1068;-79
2022/04/28 10:54:40;;;;;;;;;;;22.40;33.00;;;;;;481203;247;1274;-79
2022/04/28 10:56:41;;;;;;;;;;;22.50;33.00;;;;;;481241;247;1255;-79
2022/04/28 10:58:43;;;;;;;;;;;22.40;32.80;;;;;;481144;247;1066;-78
2022/04/28 11:00:44;;;;;;;;;;;22.40;32.80;;;;;;481044;247;1386;-79
2022/04/28 11:02:45;;;;;;;;;;;22.40;32.70;;;;;;481273;247;2187;-79
2022/04/28 11:04:47;;;;;;;;;;;22.30;32.80;;;;;;481542;247;913;-79
2022/04/28 11:06:48;;;;;;;;;;;22.40;32.70;;;;;;481371;247;1137;-79
2022/04/28 11:08:49;;;;;;;;;;;22.40;32.60;;;;;;481374;246;1045;-79
2022/04/28 11:10:51;;;;;;;;;;;22.40;32.70;;;;;;481230;247;1206;-79
2022/04/28 11:12:52;;;;;;;;;;;22.30;32.70;;;;;;481312;244;1129;-79
2022/04/28 11:14:59;;;;;;;;;;;22.30;32.80;;;;;;481262;247;994;-79
2022/04/28 11:16:54;;;;;;;;;;;22.30;32.80;;;;;;481110;247;1454;-79
2022/04/28 11:18:56;;;;;;;;;;;22.30;32.70;;;;;;481559;247;1318;-79
2022/04/28 11:20:57;;;;;;;;;;;22.40;32.60;;;;;;481208;247;1364;-79
2022/04/28 11:22:58;;;;;;;;;;;22.40;32.50;;;;;;481064;247;2193;-79
2022/04/28 11:25:00;;;;;;;;;;;22.40;32.40;;;;;;480822;247;1097;-78
2022/04/28 11:27:01;;;;;;;;;;;22.50;32.40;;;;;;480993;247;1260;-79
2022/04/28 11:29:02;;;;;;;;;;;22.50;32.50;;;;;;481128;247;1098;-78
2022/04/28 11:31:04;;;;;;;;;;;22.60;32.40;;;;;;481151;247;1101;-79
2022/04/28 11:33:05;;;;;;;;;;;22.50;32.50;;;;;;480862;246;1153;-79
2022/04/28 11:35:06;;;;;;;;;;;22.40;32.60;;;;;;481117;247;1097;-79
2022/04/28 11:37:08;;;;;;;;;;;22.50;32.50;;;;;;481256;247;1104;-79
2022/04/28 11:39:10;;;;;;;;;;;22.40;32.50;;;;;;481215;246;1062;-78
2022/04/28 11:41:10;;;;;;;;;;;22.40;32.60;;;;;;481217;247;1466;-78
2022/04/28 11:43:12;;;;;;;;;;;22.30;32.60;;;;;;481753;246;2197;-78
2022/04/28 11:45:15;;;;;;;;;;;22.30;32.60;;;;;;481384;246;1051;-78
2022/04/28 11:47:14;;;;;;;;;;;22.30;32.60;;;;;;481145;246;2037;-78
2022/04/28 11:49:16;;;;;;;;;;;22.40;32.70;;;;;;481105;247;1275;-78
2022/04/28 11:51:17;;;;;;;;;;;22.40;32.70;;;;;;481150;246;1158;-79
2022/04/28 11:53:19;;;;;;;;;;;22.30;32.60;;;;;;481038;247;1112;-79
2022/04/28 11:55:20;;;;;;;;;;;22.40;32.50;;;;;;481211;246;1116;-79
2022/04/28 11:57:22;;;;;;;;;;;22.20;32.70;;;;;;481048;247;1131;-79
2022/04/28 11:59:22;;;;;;;;;;;22.20;32.80;;;;;;481078;247;1476;-79
2022/04/28 12:01:24;;;;;;;;;;;22.30;32.70;;;;;;481089;246;1226;-79
2022/04/28 12:03:25;;;;;;;;;;;22.30;32.50;;;;;;481394;247;2215;-79
2022/04/28 12:05:27;;;;;;;;;;;22.40;32.40;;;;;;481341;246;1376;-79
2022/04/28 12:07:28;;;;;;;;;;;22.40;32.30;;;;;;472864;251;1457;-79
2022/04/28 12:14:22;;;;;;;;;;;22.40;32.40;;;;;;472935;252;1209;-78
2022/04/28 12:19:19;;;;;;;;;;;22.40;32.20;;;;;;480843;247;1232;-78
2022/04/28 12:20:45;;;;;;;;;;;22.40;32.20;;;;;;489892;243;1315;-77
2022/04/28 12:22:46;;;;;;;;;;;22.40;32.30;;;;;;472776;252;1072;-77
2022/04/28 12:24:47;;;;;;;;;;;22.30;32.30;;;;;;481007;246;2193;-77
2022/04/28 12:26:48;;;;;;;;;;;22.20;32.40;;;;;;480886;247;1196;-77
2022/04/28 12:28:50;;;;;;;;;;;22.10;32.40;;;;;;481021;246;1155;-77
2022/04/28 12:30:51;;;;;;;;;;;22.20;32.40;;;;;;480982;247;1234;-78